Preveza, Greece
Current Conditions -  °F | °C
As of 2:50 AM on Thursday 23 Oct 2014 (Local Time) from LGPZ Reporting Station
Broken Clouds Broken Clouds  
Wind Chill: 64°   Ceiling: 8000
Heat Index: 64°   Visibility: 6mi
Dew Point: 61°   Wind: 17mph
Humidity: 88%   Direction: 270°W
Pressure: 29.53"   Gusts: NA
Location:  38.95°N, 20.75°E
Report Text: LGPZ 222350Z 27015KT 9999 SCT018TCU SCT025 BKN080 18/16 Q1000
Loading
Personal Weather Stations






























Interactive Weather Map New forecast layout! Learn more

10-Day Weather Forecast

Advertisements
Track Severe Weather on mobile